sensor_id;sensor_type;location;lat;lon;timestamp;pressure;altitude;pressure_sealevel;temperature;humidity
46690;BME280;32423;45.398;10.874;2023-11-21T00:02:36;100226.31;;;12.28;60.54
46690;BME280;32423;45.398;10.874;2023-11-21T00:05:30;100233.31;;;12.17;60.92
46690;BME280;32423;45.398;10.874;2023-11-21T00:08:25;100226.53;;;12.23;60.49
46690;BME280;32423;45.398;10.874;2023-11-21T00:11:17;100218.84;;;12.05;60.72
46690;BME280;32423;45.398;10.874;2023-11-21T00:14:12;100205.97;;;12.14;61.04
46690;BME280;32423;45.398;10.874;2023-11-21T00:17:10;100213.22;;;12.22;60.11
46690;BME280;32423;45.398;10.874;2023-11-21T00:20:05;100220.50;;;12.18;59.62
46690;BME280;32423;45.398;10.874;2023-11-21T00:22:59;100220.72;;;12.13;60.39
46690;BME280;32423;45.398;10.874;2023-11-21T00:25:54;100206.03;;;12.05;60.87
46690;BME280;32423;45.398;10.874;2023-11-21T00:28:48;100194.13;;;12.10;60.92
46690;BME280;32423;45.398;10.874;2023-11-21T00:31:43;100178.91;;;12.09;60.43
46690;BME280;32423;45.398;10.874;2023-11-21T00:34:37;100181.06;;;12.03;60.81
46690;BME280;32423;45.398;10.874;2023-11-21T00:37:32;100175.28;;;12.17;60.33
46690;BME280;32423;45.398;10.874;2023-11-21T00:40:29;100177.91;;;12.13;60.20
46690;BME280;32423;45.398;10.874;2023-11-21T00:43:24;100181.28;;;12.10;60.03
46690;BME280;32423;45.398;10.874;2023-11-21T00:46:18;100189.81;;;12.09;60.56
46690;BME280;32423;45.398;10.874;2023-11-21T00:49:19;100187.06;;;11.96;61.12
46690;BME280;32423;45.398;10.874;2023-11-21T00:52:13;100187.53;;;11.98;61.10
46690;BME280;32423;45.398;10.874;2023-11-21T00:55:05;100186.38;;;11.99;61.01
46690;BME280;32423;45.398;10.874;2023-11-21T00:58:00;100192.19;;;12.10;60.73
46690;BME280;32423;45.398;10.874;2023-11-21T01:00:54;100190.38;;;12.02;60.63
46690;BME280;32423;45.398;10.874;2023-11-21T01:03:52;100197.75;;;12.02;61.36
46690;BME280;32423;45.398;10.874;2023-11-21T01:06:47;100197.41;;;12.03;61.42
46690;BME280;32423;45.398;10.874;2023-11-21T01:09:41;100187.53;;;12.11;61.30
46690;BME280;32423;45.398;10.874;2023-11-21T01:12:39;100189.13;;;12.12;61.45
46690;BME280;32423;45.398;10.874;2023-11-21T01:15:31;100178.69;;;12.26;61.13
46690;BME280;32423;45.398;10.874;2023-11-21T01:18:25;100183.13;;;12.18;61.25
46690;BME280;32423;45.398;10.874;2023-11-21T01:21:20;100173.47;;;12.21;61.97
46690;BME280;32423;45.398;10.874;2023-11-21T01:24:14;100179.59;;;12.30;61.30
46690;BME280;32423;45.398;10.874;2023-11-21T01:27:14;100170.84;;;12.24;60.94
46690;BME280;32423;45.398;10.874;2023-11-21T01:30:09;100173.47;;;12.21;61.62
46690;BME280;32423;45.398;10.874;2023-11-21T01:33:03;100165.28;;;12.21;61.20
46690;BME280;32423;45.398;10.874;2023-11-21T01:35:58;100163.94;;;12.27;61.49
46690;BME280;32423;45.398;10.874;2023-11-21T01:38:52;100165.19;;;12.29;60.96
46690;BME280;32423;45.398;10.874;2023-11-21T01:41:47;100168.38;;;12.31;60.36
46690;BME280;32423;45.398;10.874;2023-11-21T01:44:41;100164.28;;;12.25;60.25
46690;BME280;32423;45.398;10.874;2023-11-21T01:47:34;100161.00;;;12.32;60.06
46690;BME280;32423;45.398;10.874;2023-11-21T01:50:30;100152.69;;;12.28;60.14
46690;BME280;32423;45.398;10.874;2023-11-21T01:53:23;100153.50;;;12.29;60.48
46690;BME280;32423;45.398;10.874;2023-11-21T01:56:19;100138.50;;;12.23;60.28
46690;BME280;32423;45.398;10.874;2023-11-21T01:59:11;100134.41;;;12.17;60.31
46690;BME280;32423;45.398;10.874;2023-11-21T02:02:03;100124.53;;;12.12;59.93
46690;BME280;32423;45.398;10.874;2023-11-21T02:04:57;100119.66;;;12.18;59.55
46690;BME280;32423;45.398;10.874;2023-11-21T02:07:54;100125.44;;;12.16;59.76
46690;BME280;32423;45.398;10.874;2023-11-21T02:10:46;100126.34;;;12.08;59.10
46690;BME280;32423;45.398;10.874;2023-11-21T02:13:41;100117.81;;;12.22;58.97
46690;BME280;32423;45.398;10.874;2023-11-21T02:16:41;100121.47;;;12.38;58.71
46690;BME280;32423;45.398;10.874;2023-11-21T02:19:35;100115.78;;;12.31;58.04
46690;BME280;32423;45.398;10.874;2023-11-21T02:22:32;100107.03;;;12.25;58.61
46690;BME280;32423;45.398;10.874;2023-11-21T02:25:33;100120.31;;;12.15;58.43
46690;BME280;32423;45.398;10.874;2023-11-21T02:28:28;100116.69;;;12.23;58.04
46690;BME280;32423;45.398;10.874;2023-11-21T02:31:20;100111.91;;;12.08;57.76
46690;BME280;32423;45.398;10.874;2023-11-21T02:34:15;100106.09;;;12.09;58.23
46690;BME280;32423;45.398;10.874;2023-11-21T02:37:07;100106.78;;;12.06;58.37
46690;BME280;32423;45.398;10.874;2023-11-21T02:40:02;100095.44;;;12.04;58.20
46690;BME280;32423;45.398;10.874;2023-11-21T02:43:00;100093.50;;;12.17;57.93
46690;BME280;32423;45.398;10.874;2023-11-21T02:45:54;100090.81;;;12.29;57.55
46690;BME280;32423;45.398;10.874;2023-11-21T02:48:55;100087.59;;;12.27;57.84
46690;BME280;32423;45.398;10.874;2023-11-21T02:51:53;100075.56;;;12.28;58.31
46690;BME280;32423;45.398;10.874;2023-11-21T02:54:47;100068.63;;;12.30;58.24
46690;BME280;32423;45.398;10.874;2023-11-21T02:57:42;100067.72;;;12.38;57.43
46690;BME280;32423;45.398;10.874;2023-11-21T03:00:36;100059.88;;;12.37;57.30
46690;BME280;32423;45.398;10.874;2023-11-21T03:03:31;100058.75;;;12.38;57.38
46690;BME280;32423;45.398;10.874;2023-11-21T03:06:23;100061.09;;;12.52;57.27
46690;BME280;32423;45.398;10.874;2023-11-21T03:09:18;100066.66;;;12.55;57.09
46690;BME280;32423;45.398;10.874;2023-11-21T03:12:12;100066.41;;;12.60;57.20
46690;BME280;32423;45.398;10.874;2023-11-21T03:15:09;100064.00;;;12.07;58.62
46690;BME280;32423;45.398;10.874;2023-11-21T03:18:04;100059.00;;;12.09;58.81
46690;BME280;32423;45.398;10.874;2023-11-21T03:20:58;100059.91;;;12.13;58.85
46690;BME280;32423;45.398;10.874;2023-11-21T03:23:53;100061.72;;;12.21;58.07
46690;BME280;32423;45.398;10.874;2023-11-21T03:26:48;100066.97;;;12.14;59.15
46690;BME280;32423;45.398;10.874;2023-11-21T03:29:42;100066.59;;;11.91;60.50
46690;BME280;32423;45.398;10.874;2023-11-21T03:32:37;100055.94;;;12.22;60.15
46690;BME280;32423;45.398;10.874;2023-11-21T03:35:31;100052.84;;;12.36;59.40
46690;BME280;32423;45.398;10.874;2023-11-21T03:38:23;100050.91;;;12.24;59.32
46690;BME280;32423;45.398;10.874;2023-11-21T03:41:17;100051.03;;;12.16;60.41
46690;BME280;32423;45.398;10.874;2023-11-21T03:44:10;100053.75;;;12.16;60.80
46690;BME280;32423;45.398;10.874;2023-11-21T03:47:02;100052.53;;;12.01;61.85
46690;BME280;32423;45.398;10.874;2023-11-21T03:49:57;100052.88;;;12.12;61.17
46690;BME280;32423;45.398;10.874;2023-11-21T03:52:51;100049.78;;;12.01;60.38
46690;BME280;32423;45.398;10.874;2023-11-21T03:55:46;100054.56;;;12.04;59.34
46690;BME280;32423;45.398;10.874;2023-11-21T03:58:38;100053.31;;;12.02;59.35
46690;BME280;32423;45.398;10.874;2023-11-21T04:01:30;100049.22;;;11.95;59.41
46690;BME280;32423;45.398;10.874;2023-11-21T04:04:24;100048.44;;;11.95;59.53
46690;BME280;32423;45.398;10.874;2023-11-21T04:07:19;100048.56;;;11.98;59.77
46690;BME280;32423;45.398;10.874;2023-11-21T04:10:13;100048.56;;;11.98;60.59
46690;BME280;32423;45.398;10.874;2023-11-21T04:13:11;100039.38;;;12.03;59.30
46690;BME280;32423;45.398;10.874;2023-11-21T04:16:03;100040.59;;;12.06;58.81
46690;BME280;32423;45.398;10.874;2023-11-21T04:18:56;100039.38;;;12.03;57.93
46690;BME280;32423;45.398;10.874;2023-11-21T04:21:49;100043.78;;;11.83;58.62
46690;BME280;32423;45.398;10.874;2023-11-21T04:24:38;100046.22;;;11.64;59.03
46690;BME280;32423;45.398;10.874;2023-11-21T04:27:30;100047.34;;;11.63;59.35
46690;BME280;32423;45.398;10.874;2023-11-21T04:30:25;100041.13;;;11.63;59.99
46690;BME280;32423;45.398;10.874;2023-11-21T04:33:19;100040.56;;;11.57;60.18
46690;BME280;32423;45.398;10.874;2023-11-21T04:36:11;100036.66;;;11.58;59.40
46690;BME280;32423;45.398;10.874;2023-11-21T04:39:03;100051.41;;;11.45;60.06
46690;BME280;32423;45.398;10.874;2023-11-21T04:41:58;100044.06;;;11.57;59.47
46690;BME280;32423;45.398;10.874;2023-11-21T04:44:52;100052.94;;;11.67;59.31
46690;BME280;32423;45.398;10.874;2023-11-21T04:47:50;100055.50;;;11.51;58.81
46690;BME280;32423;45.398;10.874;2023-11-21T04:50:45;100056.59;;;11.38;59.51
46690;BME280;32423;45.398;10.874;2023-11-21T04:53:39;100069.06;;;11.27;60.50
46690;BME280;32423;45.398;10.874;2023-11-21T04:56:35;100076.38;;;11.47;59.83
46690;BME280;32423;45.398;10.874;2023-11-21T04:59:29;100068.91;;;11.56;58.87
46690;BME280;32423;45.398;10.874;2023-11-21T05:02:24;100066.63;;;11.46;59.83
46690;BME280;32423;45.398;10.874;2023-11-21T05:05:19;100068.47;;;11.66;59.39
46690;BME280;32423;45.398;10.874;2023-11-21T05:08:13;100063.47;;;11.56;59.37
46690;BME280;32423;45.398;10.874;2023-11-21T05:11:08;100066.44;;;11.30;60.04
46690;BME280;32423;45.398;10.874;2023-11-21T05:14:02;100052.63;;;11.02;60.35
46690;BME280;32423;45.398;10.874;2023-11-21T05:16:59;100042.53;;;11.36;60.02
46690;BME280;32423;45.398;10.874;2023-11-21T05:19:54;100043.28;;;11.12;60.26
46690;BME280;32423;45.398;10.874;2023-11-21T05:22:46;100038.88;;;11.20;59.87
46690;BME280;32423;45.398;10.874;2023-11-21T05:25:41;100041.03;;;10.93;60.09
46690;BME280;32423;45.398;10.874;2023-11-21T05:28:35;100040.44;;;10.67;60.86
46690;BME280;32423;45.398;10.874;2023-11-21T05:31:26;100041.91;;;10.64;60.60
46690;BME280;32423;45.398;10.874;2023-11-21T05:34:20;100046.84;;;10.71;61.07
46690;BME280;32423;45.398;10.874;2023-11-21T05:37:15;100042.19;;;10.51;61.65
46690;BME280;32423;45.398;10.874;2023-11-21T05:40:10;100037.59;;;10.43;61.70
46690;BME280;32423;45.398;10.874;2023-11-21T05:43:05;100033.75;;;10.44;60.97
46690;BME280;32423;45.398;10.874;2023-11-21T05:45:59;100023.81;;;10.68;61.09
46690;BME280;32423;45.398;10.874;2023-11-21T05:48:54;100034.59;;;10.77;59.58
46690;BME280;32423;45.398;10.874;2023-11-21T05:51:49;100032.44;;;10.70;59.73
46690;BME280;32423;45.398;10.874;2023-11-21T05:54:43;100020.16;;;10.64;60.35
46690;BME280;32423;45.398;10.874;2023-11-21T05:57:45;100028.44;;;10.68;60.30
46690;BME280;32423;45.398;10.874;2023-11-21T06:00:40;100027.81;;;10.71;60.32
46690;BME280;32423;45.398;10.874;2023-11-21T06:03:35;100033.44;;;10.66;60.38
46690;BME280;32423;45.398;10.874;2023-11-21T06:06:30;100029.44;;;10.84;60.24
46690;BME280;32423;45.398;10.874;2023-11-21T06:09:22;100031.84;;;10.65;60.13
46690;BME280;32423;45.398;10.874;2023-11-21T06:12:16;100018.78;;;10.58;60.75
46690;BME280;32423;45.398;10.874;2023-11-21T06:15:09;100021.44;;;10.25;60.51
46690;BME280;32423;45.398;10.874;2023-11-21T06:18:04;100028.75;;;9.58;63.76
46690;BME280;32423;45.398;10.874;2023-11-21T06:20:58;100038.97;;;8.45;66.73
46690;BME280;32423;45.398;10.874;2023-11-21T06:23:50;100040.72;;;7.85;69.67
46690;BME280;32423;45.398;10.874;2023-11-21T06:26:44;100038.88;;;7.63;71.54
46690;BME280;32423;45.398;10.874;2023-11-21T06:29:39;100039.38;;;7.73;71.16
46690;BME280;32423;45.398;10.874;2023-11-21T06:32:34;100035.78;;;7.87;71.01
46690;BME280;32423;45.398;10.874;2023-11-21T06:35:31;100027.81;;;7.82;71.45
46690;BME280;32423;45.398;10.874;2023-11-21T06:38:25;100028.31;;;7.92;70.68
46690;BME280;32423;45.398;10.874;2023-11-21T06:41:21;100031.47;;;8.59;69.63
46690;BME280;32423;45.398;10.874;2023-11-21T06:44:16;100026.34;;;9.01;67.05
46690;BME280;32423;45.398;10.874;2023-11-21T06:47:11;100025.41;;;8.80;66.99
46690;BME280;32423;45.398;10.874;2023-11-21T06:50:05;100034.13;;;9.28;66.24
46690;BME280;32423;45.398;10.874;2023-11-21T06:52:59;100035.22;;;9.36;64.72
46690;BME280;32423;45.398;10.874;2023-11-21T06:55:54;100043.94;;;9.50;64.90
46690;BME280;32423;45.398;10.874;2023-11-21T06:58:49;100039.94;;;9.65;64.37
46690;BME280;32423;45.398;10.874;2023-11-21T07:01:43;100037.66;;;9.67;64.62
46690;BME280;32423;45.398;10.874;2023-11-21T07:04:38;100027.38;;;9.43;64.30
46690;BME280;32423;45.398;10.874;2023-11-21T07:07:32;100025.41;;;8.97;67.54
46690;BME280;32423;45.398;10.874;2023-11-21T07:10:27;100017.44;;;8.32;69.62
46690;BME280;32423;45.398;10.874;2023-11-21T07:13:21;100011.19;;;8.23;70.99
46690;BME280;32423;45.398;10.874;2023-11-21T07:16:16;100013.72;;;8.10;71.01
46690;BME280;32423;45.398;10.874;2023-11-21T07:19:11;100020.38;;;8.04;71.26
46690;BME280;32423;45.398;10.874;2023-11-21T07:22:06;100028.81;;;8.03;71.27
46690;BME280;32423;45.398;10.874;2023-11-21T07:25:06;100025.03;;;8.21;72.00
46690;BME280;32423;45.398;10.874;2023-11-21T07:28:01;100015.75;;;8.05;72.02
46690;BME280;32423;45.398;10.874;2023-11-21T07:30:55;100021.03;;;8.18;71.38
46690;BME280;32423;45.398;10.874;2023-11-21T07:33:50;100022.88;;;8.40;70.87
46690;BME280;32423;45.398;10.874;2023-11-21T07:36:44;100012.34;;;8.47;71.25
46690;BME280;32423;45.398;10.874;2023-11-21T07:39:39;100012.50;;;8.42;70.27
46690;BME280;32423;45.398;10.874;2023-11-21T07:42:39;100020.81;;;8.72;70.69
46690;BME280;32423;45.398;10.874;2023-11-21T07:45:30;100008.50;;;8.48;70.94
46690;BME280;32423;45.398;10.874;2023-11-21T07:48:25;100005.97;;;8.86;70.48
46690;BME280;32423;45.398;10.874;2023-11-21T07:51:19;100000.03;;;9.01;70.57
46690;BME280;32423;45.398;10.874;2023-11-21T07:54:14;100009.19;;;9.43;68.68
46690;BME280;32423;45.398;10.874;2023-11-21T07:57:09;100016.44;;;9.60;67.65
46690;BME280;32423;45.398;10.874;2023-11-21T08:00:04;100007.16;;;9.23;67.40
46690;BME280;32423;45.398;10.874;2023-11-21T08:03:01;100006.38;;;9.23;68.01
46690;BME280;32423;45.398;10.874;2023-11-21T08:05:56;100010.19;;;9.68;67.84
46690;BME280;32423;45.398;10.874;2023-11-21T08:08:51;100011.56;;;10.12;66.20
46690;BME280;32423;45.398;10.874;2023-11-21T08:11:43;100000.88;;;10.37;64.45
46690;BME280;32423;45.398;10.874;2023-11-21T08:14:38;100002.97;;;10.31;63.50
46690;BME280;32423;45.398;10.874;2023-11-21T08:17:30;100008.84;;;9.83;64.97
46690;BME280;32423;45.398;10.874;2023-11-21T08:20:22;100015.84;;;9.55;65.82
46690;BME280;32423;45.398;10.874;2023-11-21T08:23:16;100014.97;;;9.33;66.80
46690;BME280;32423;45.398;10.874;2023-11-21T08:26:11;100013.94;;;9.47;66.77
46690;BME280;32423;45.398;10.874;2023-11-21T08:29:06;99994.16;;;9.84;65.81
46690;BME280;32423;45.398;10.874;2023-11-21T08:32:00;99993.84;;;10.36;64.66
46690;BME280;32423;45.398;10.874;2023-11-21T08:34:52;99996.28;;;10.70;62.93
46690;BME280;32423;45.398;10.874;2023-11-21T08:37:47;99995.91;;;10.92;62.09
46690;BME280;32423;45.398;10.874;2023-11-21T08:40:42;99995.75;;;11.09;60.63
46690;BME280;32423;45.398;10.874;2023-11-21T08:43:36;99990.22;;;11.18;60.04
46690;BME280;32423;45.398;10.874;2023-11-21T08:46:32;99999.91;;;11.40;59.49
46690;BME280;32423;45.398;10.874;2023-11-21T08:49:23;100005.38;;;11.52;59.52
46690;BME280;32423;45.398;10.874;2023-11-21T08:52:15;99988.38;;;11.67;58.81
46690;BME280;32423;45.398;10.874;2023-11-21T08:55:07;99994.72;;;11.71;58.77
46690;BME280;32423;45.398;10.874;2023-11-21T08:58:05;100002.13;;;11.83;58.42
46690;BME280;32423;45.398;10.874;2023-11-21T09:00:59;100014.28;;;11.97;58.53
46690;BME280;32423;45.398;10.874;2023-11-21T09:03:54;100011.31;;;12.03;58.04
46690;BME280;32423;45.398;10.874;2023-11-21T09:06:41;100016.97;;;12.10;57.48
46690;BME280;32423;45.398;10.874;2023-11-21T09:09:35;100019.59;;;12.18;57.14
46690;BME280;32423;45.398;10.874;2023-11-21T09:12:30;100013.06;;;12.35;56.90
46690;BME280;32423;45.398;10.874;2023-11-21T09:15:25;100002.16;;;12.35;56.66
46690;BME280;32423;45.398;10.874;2023-11-21T09:18:19;99985.13;;;12.38;56.94
46690;BME280;32423;45.398;10.874;2023-11-21T09:21:14;99983.53;;;12.49;57.13
46690;BME280;32423;45.398;10.874;2023-11-21T09:24:09;99978.50;;;12.51;57.24
46690;BME280;32423;45.398;10.874;2023-11-21T09:27:03;99976.47;;;12.48;57.29
46690;BME280;32423;45.398;10.874;2023-11-21T09:29:58;99986.25;;;12.49;58.24
46690;BME280;32423;45.398;10.874;2023-11-21T09:32:50;99987.56;;;12.55;57.76
46690;BME280;32423;45.398;10.874;2023-11-21T09:35:44;99993.28;;;12.78;57.00
46690;BME280;32423;45.398;10.874;2023-11-21T09:38:36;99991.91;;;12.84;56.92
46690;BME280;32423;45.398;10.874;2023-11-21T09:41:40;99993.50;;;13.01;55.73
46690;BME280;32423;45.398;10.874;2023-11-21T09:44:51;99987.19;;;12.97;54.26
46690;BME280;32423;45.398;10.874;2023-11-21T09:47:45;99977.22;;;12.89;54.82
46690;BME280;32423;45.398;10.874;2023-11-21T09:50:39;99978.31;;;13.00;54.71
46690;BME280;32423;45.398;10.874;2023-11-21T09:53:38;99985.97;;;13.10;53.91
46690;BME280;32423;45.398;10.874;2023-11-21T09:56:37;99986.56;;;13.15;53.60
46690;BME280;32423;45.398;10.874;2023-11-21T09:59:37;99981.81;;;13.44;53.92
46690;BME280;32423;45.398;10.874;2023-11-21T10:02:31;99978.22;;;13.55;53.09
46690;BME280;32423;45.398;10.874;2023-11-21T10:05:28;99968.31;;;13.66;52.37
46690;BME280;32423;45.398;10.874;2023-11-21T10:08:24;99989.09;;;13.87;51.99
46690;BME280;32423;45.398;10.874;2023-11-21T10:11:17;99985.75;;;13.93;51.44
46690;BME280;32423;45.398;10.874;2023-11-21T10:14:14;99989.91;;;14.22;50.14
46690;BME280;32423;45.398;10.874;2023-11-21T10:17:08;99989.75;;;14.15;50.66
46690;BME280;32423;45.398;10.874;2023-11-21T10:20:05;100000.53;;;14.08;49.81
46690;BME280;32423;45.398;10.874;2023-11-21T10:23:03;99997.75;;;13.89;51.20
46690;BME280;32423;45.398;10.874;2023-11-21T10:25:57;99992.75;;;13.59;51.76
46690;BME280;32423;45.398;10.874;2023-11-21T10:29:03;99994.50;;;13.67;51.57
46690;BME280;32423;45.398;10.874;2023-11-21T10:31:57;99994.47;;;13.83;51.17
46690;BME280;32423;45.398;10.874;2023-11-21T10:35:02;99989.59;;;14.08;51.19
46690;BME280;32423;45.398;10.874;2023-11-21T10:38:05;99988.78;;;14.07;51.10
46690;BME280;32423;45.398;10.874;2023-11-21T10:41:00;99984.84;;;14.05;51.23
46690;BME280;32423;45.398;10.874;2023-11-21T10:43:53;99988.34;;;14.21;50.69
46690;BME280;32423;45.398;10.874;2023-11-21T10:46:47;99975.53;;;14.25;50.40
46690;BME280;32423;45.398;10.874;2023-11-21T10:49:42;99987.25;;;13.91;51.37
46690;BME280;32423;45.398;10.874;2023-11-21T10:52:37;99981.97;;;13.82;51.78
46690;BME280;32423;45.398;10.874;2023-11-21T10:55:31;99976.75;;;13.77;52.39
46690;BME280;32423;45.398;10.874;2023-11-21T10:58:21;99972.63;;;13.67;52.49
46690;BME280;32423;45.398;10.874;2023-11-21T11:01:19;99980.03;;;13.83;52.92
46690;BME280;32423;45.398;10.874;2023-11-21T11:04:17;99963.81;;;13.90;51.89
46690;BME280;32423;45.398;10.874;2023-11-21T11:07:07;99951.44;;;13.96;53.14
46690;BME280;32423;45.398;10.874;2023-11-21T11:10:03;99955.44;;;13.83;53.26
46690;BME280;32423;45.398;10.874;2023-11-21T11:12:58;99955.63;;;13.58;54.31
46690;BME280;32423;45.398;10.874;2023-11-21T11:15:58;99957.69;;;13.46;54.13
46690;BME280;32423;45.398;10.874;2023-11-21T11:18:52;99952.56;;;13.28;56.95
46690;BME280;32423;45.398;10.874;2023-11-21T11:28:35;99951.28;;;12.67;60.70
46690;BME280;32423;45.398;10.874;2023-11-21T11:34:55;99961.94;;;12.44;61.89
46690;BME280;32423;45.398;10.874;2023-11-21T11:37:53;99967.25;;;12.53;60.57
46690;BME280;32423;45.398;10.874;2023-11-21T11:40:46;99961.47;;;12.54;60.58
46690;BME280;32423;45.398;10.874;2023-11-21T11:43:41;99967.97;;;12.37;60.82
46690;BME280;32423;45.398;10.874;2023-11-21T11:46:46;99967.59;;;12.11;61.81
46690;BME280;32423;45.398;10.874;2023-11-21T11:50:04;99969.59;;;12.26;61.81
46690;BME280;32423;45.398;10.874;2023-11-21T11:53:15;99974.16;;;12.10;62.64
46690;BME280;32423;45.398;10.874;2023-11-21T11:56:28;99964.75;;;12.08;62.17
46690;BME280;32423;45.398;10.874;2023-11-21T11:59:23;99954.75;;;11.99;62.80
46690;BME280;32423;45.398;10.874;2023-11-21T12:02:17;99950.00;;;11.96;62.28
46690;BME280;32423;45.398;10.874;2023-11-21T12:05:15;99960.44;;;11.94;62.86
46690;BME280;32423;45.398;10.874;2023-11-21T12:08:11;99947.19;;;11.81;62.52
46690;BME280;32423;45.398;10.874;2023-11-21T12:11:07;99955.00;;;11.94;62.66
46690;BME280;32423;45.398;10.874;2023-11-21T12:14:02;99944.78;;;11.91;62.32
46690;BME280;32423;45.398;10.874;2023-11-21T12:17:00;99949.06;;;12.05;62.43
46690;BME280;32423;45.398;10.874;2023-11-21T12:19:55;99945.88;;;12.15;62.62
46690;BME280;32423;45.398;10.874;2023-11-21T12:22:54;99943.94;;;12.15;62.95
46690;BME280;32423;45.398;10.874;2023-11-21T12:25:51;99942.25;;;12.23;62.75
46690;BME280;32423;45.398;10.874;2023-11-21T12:28:46;99943.03;;;12.23;63.67
46690;BME280;32423;45.398;10.874;2023-11-21T12:31:46;99939.50;;;12.23;64.01
46690;BME280;32423;45.398;10.874;2023-11-21T12:34:44;99938.47;;;12.27;64.16
46690;BME280;32423;45.398;10.874;2023-11-21T12:37:36;99933.09;;;12.43;64.10
46690;BME280;32423;45.398;10.874;2023-11-21T12:40:30;99925.81;;;12.35;64.54
46690;BME280;32423;45.398;10.874;2023-11-21T12:43:22;99925.81;;;12.35;65.17
46690;BME280;32423;45.398;10.874;2023-11-21T12:46:14;99925.94;;;12.38;65.18
46690;BME280;32423;45.398;10.874;2023-11-21T12:49:09;99927.22;;;12.57;64.64
46690;BME280;32423;45.398;10.874;2023-11-21T12:52:08;99928.03;;;12.57;65.09
46690;BME280;32423;45.398;10.874;2023-11-21T12:55:03;99930.97;;;12.64;65.04
46690;BME280;32423;45.398;10.874;2023-11-21T12:57:56;99931.03;;;12.68;65.43
46690;BME280;32423;45.398;10.874;2023-11-21T13:00:50;99928.75;;;12.70;65.35
46690;BME280;32423;45.398;10.874;2023-11-21T13:03:45;99927.28;;;12.72;65.04
46690;BME280;32423;45.398;10.874;2023-11-21T13:06:37;99938.19;;;12.72;65.39
46690;BME280;32423;45.398;10.874;2023-11-21T13:09:32;99933.44;;;12.85;65.13
46690;BME280;32423;45.398;10.874;2023-11-21T13:12:30;99939.28;;;12.83;65.17
46690;BME280;32423;45.398;10.874;2023-11-21T13:15:25;99931.44;;;12.98;65.05
46690;BME280;32423;45.398;10.874;2023-11-21T13:18:22;99930.56;;;12.94;64.93
46690;BME280;32423;45.398;10.874;2023-11-21T13:21:14;99940.44;;;12.98;65.00
46690;BME280;32423;45.398;10.874;2023-11-21T13:24:06;99926.63;;;13.07;65.03
46690;BME280;32423;45.398;10.874;2023-11-21T13:26:58;99921.06;;;13.03;65.09
46690;BME280;32423;45.398;10.874;2023-11-21T13:29:56;99914.81;;;13.03;65.48
46690;BME280;32423;45.398;10.874;2023-11-21T13:32:46;99908.91;;;13.01;65.61
46690;BME280;32423;45.398;10.874;2023-11-21T13:35:37;99911.50;;;13.09;65.09
46690;BME280;32423;45.398;10.874;2023-11-21T13:38:34;99912.34;;;12.98;65.33
46690;BME280;32423;45.398;10.874;2023-11-21T13:41:26;99908.91;;;13.01;65.56
46690;BME280;32423;45.398;10.874;2023-11-21T13:44:24;99910.25;;;13.07;65.20
46690;BME280;32423;45.398;10.874;2023-11-21T13:47:23;99914.63;;;12.96;65.37
46690;BME280;32423;45.398;10.874;2023-11-21T13:50:21;99918.81;;;13.05;65.50
46690;BME280;32423;45.398;10.874;2023-11-21T13:53:16;99918.88;;;12.93;65.05
46690;BME280;32423;45.398;10.874;2023-11-21T13:56:15;99922.13;;;12.99;65.18
46690;BME280;32423;45.398;10.874;2023-11-21T13:59:11;99924.69;;;13.07;65.39
46690;BME280;32423;45.398;10.874;2023-11-21T14:02:22;99920.13;;;13.11;64.72
46690;BME280;32423;45.398;10.874;2023-11-21T14:05:21;99918.44;;;13.07;64.98
46690;BME280;32423;45.398;10.874;2023-11-21T14:08:21;99928.22;;;13.08;65.15
46690;BME280;32423;45.398;10.874;2023-11-21T14:11:15;99922.03;;;13.11;65.03
46690;BME280;32423;45.398;10.874;2023-11-21T14:14:11;99920.94;;;13.12;64.99
46690;BME280;32423;45.398;10.874;2023-11-21T14:17:07;99938.56;;;13.14;64.86
46690;BME280;32423;45.398;10.874;2023-11-21T14:20:02;99937.03;;;13.17;64.47
46690;BME280;32423;45.398;10.874;2023-11-21T14:22:55;99942.44;;;13.29;64.30
46690;BME280;32423;45.398;10.874;2023-11-21T14:25:50;99953.78;;;13.31;64.52
46690;BME280;32423;45.398;10.874;2023-11-21T14:28:44;99954.75;;;13.23;64.35
46690;BME280;32423;45.398;10.874;2023-11-21T14:31:39;99959.50;;;13.26;64.13
46690;BME280;32423;45.398;10.874;2023-11-21T14:34:34;99966.56;;;13.27;64.26
46690;BME280;32423;45.398;10.874;2023-11-21T14:37:28;99966.75;;;13.34;64.28
46690;BME280;32423;45.398;10.874;2023-11-21T14:40:20;99968.16;;;13.28;64.76
46690;BME280;32423;45.398;10.874;2023-11-21T14:43:13;99969.81;;;13.33;65.71
46690;BME280;32423;45.398;10.874;2023-11-21T14:46:03;99973.88;;;13.39;65.71
46690;BME280;32423;45.398;10.874;2023-11-21T14:48:58;99971.88;;;13.36;66.27
46690;BME280;32423;45.398;10.874;2023-11-21T14:51:54;99973.09;;;13.38;66.32
46690;BME280;32423;45.398;10.874;2023-11-21T14:54:54;99969.91;;;13.36;66.29
46690;BME280;32423;45.398;10.874;2023-11-21T14:58:07;99972.22;;;13.34;65.75
46690;BME280;32423;45.398;10.874;2023-11-21T15:01:01;99968.44;;;13.39;65.56
46690;BME280;32423;45.398;10.874;2023-11-21T15:03:59;99972.63;;;13.36;65.24
46690;BME280;32423;45.398;10.874;2023-11-21T15:06:52;99969.91;;;13.36;65.64
46690;BME280;32423;45.398;10.874;2023-11-21T15:09:47;99979.31;;;13.23;65.52
46690;BME280;32423;45.398;10.874;2023-11-21T15:12:39;99980.41;;;13.34;65.39
46690;BME280;32423;45.398;10.874;2023-11-21T15:15:33;99978.78;;;13.17;65.53
46690;BME280;32423;45.398;10.874;2023-11-21T15:18:26;99981.59;;;13.21;65.00
46690;BME280;32423;45.398;10.874;2023-11-21T15:21:21;99983.06;;;13.31;64.14